Time;durP1;ratioP1;P1;durP2;ratioP2;P2;SDS_P1;SDS_P2;PMS_P1;PMS_P2;Temp;Humidity;BMP_temperature;BMP_pressure;BME280_temperature;BME280_humidity;BME280_pressure;Samples;Min_cycle;Max_cycle;Signal;HPM_P1;HPM_P2
2023/10/03 00:03:08;;;;;;;13.30;9.40;;;24.00;61.40;;;;;;217374;1295;22573;-65
2023/10/03 00:08:11;;;;;;;15.30;9.60;;;24.00;61.30;;;;;;217496;1283;25626;-65
2023/10/03 00:13:15;;;;;;;14.00;8.90;;;24.00;61.20;;;;;;217449;1298;22549;-63
2023/10/03 00:18:18;;;;;;;11.70;9.10;;;23.90;61.20;;;;;;217304;1288;22696;-63
2023/10/03 00:23:21;;;;;;;13.20;8.40;;;23.90;61.20;;;;;;217141;1298;24395;-66
2023/10/03 00:28:24;;;;;;;14.40;9.00;;;23.90;61.10;;;;;;217262;1298;24139;-65
2023/10/03 00:33:26;;;;;;;16.30;9.80;;;23.90;61.10;;;;;;217392;1297;22532;-62
2023/10/03 00:38:29;;;;;;;14.30;9.60;;;23.90;61.40;;;;;;217421;1292;22691;-64
2023/10/03 00:43:32;;;;;;;17.80;10.50;;;23.90;61.40;;;;;;217141;1293;22568;-64
2023/10/03 00:48:35;;;;;;;13.50;8.90;;;23.90;61.10;;;;;;217233;1298;22658;-65
2023/10/03 00:53:38;;;;;;;16.60;9.30;;;23.90;61.10;;;;;;217428;1292;22560;-65
2023/10/03 00:58:41;;;;;;;13.20;8.20;;;23.90;61.00;;;;;;217366;1298;22549;-64
2023/10/03 01:03:47;;;;;;;14.00;9.00;;;23.90;61.10;;;;;;217310;1298;22595;-64
2023/10/03 01:08:51;;;;;;;12.00;8.40;;;23.80;61.00;;;;;;217446;1298;25285;-64
2023/10/03 01:13:59;;;;;;;13.70;9.10;;;23.80;61.00;;;;;;217120;1283;23749;-62
2023/10/03 01:19:14;;;;;;;10.80;7.80;;;23.80;61.00;;;;;;217288;1294;22682;-65
2023/10/03 01:24:20;;;;;;;12.90;8.50;;;23.80;60.90;;;;;;217413;1298;22608;-64
2023/10/03 01:29:24;;;;;;;11.80;7.30;;;23.80;61.00;;;;;;217475;1298;22810;-64
2023/10/03 01:34:27;;;;;;;13.20;8.00;;;23.80;60.80;;;;;;217325;1294;24265;-64
2023/10/03 01:39:30;;;;;;;13.10;8.20;;;23.80;60.70;;;;;;217301;1292;22550;-65
2023/10/03 01:44:34;;;;;;;8.60;6.70;;;23.70;60.70;;;;;;217365;1298;22643;-63
2023/10/03 01:49:38;;;;;;;9.60;7.50;;;23.70;60.80;;;;;;217336;1298;23380;-64
2023/10/03 01:54:42;;;;;;;8.80;7.00;;;23.70;60.60;;;;;;217372;1298;24264;-64
2023/10/03 01:59:45;;;;;;;10.10;7.70;;;23.70;60.70;;;;;;217363;1297;25576;-63
2023/10/03 02:04:48;;;;;;;9.90;6.90;;;23.70;60.70;;;;;;217267;1292;22582;-64
2023/10/03 02:09:51;;;;;;;9.90;7.30;;;23.70;60.70;;;;;;217263;1292;22720;-64
2023/10/03 02:14:54;;;;;;;8.60;6.10;;;23.70;60.70;;;;;;216961;1298;22871;-64
2023/10/03 02:19:59;;;;;;;11.90;6.60;;;23.70;60.70;;;;;;217519;1292;25365;-64
2023/10/03 02:25:02;;;;;;;10.10;6.80;;;23.70;60.70;;;;;;217410;1292;22776;-64
2023/10/03 02:30:11;;;;;;;10.20;6.90;;;23.70;60.10;;;;;;217258;1297;22632;-64
2023/10/03 02:35:14;;;;;;;9.60;7.00;;;23.60;60.50;;;;;;216340;1294;25603;-65
2023/10/03 02:40:22;;;;;;;7.10;6.10;;;23.60;60.40;;;;;;215952;1301;23056;-64
2023/10/03 02:45:28;;;;;;;10.70;7.00;;;23.70;60.50;;;;;;215895;1293;22562;-64
2023/10/03 02:50:34;;;;;;;10.50;6.60;;;23.60;60.90;;;;;;216326;1299;22698;-65
2023/10/03 02:55:37;;;;;;;7.80;6.50;;;23.60;60.50;;;;;;217307;1298;22706;-64
2023/10/03 03:00:41;;;;;;;8.80;6.80;;;23.60;61.00;;;;;;217182;1293;22561;-65
2023/10/03 03:05:48;;;;;;;7.70;6.70;;;23.50;60.50;;;;;;217169;1291;428525;-64
2023/10/03 03:10:57;;;;;;;8.00;6.10;;;23.50;60.50;;;;;;217494;1283;22679;-65
2023/10/03 03:16:03;;;;;;;7.40;6.60;;;23.50;60.40;;;;;;217470;1298;23044;-64
2023/10/03 03:21:13;;;;;;;8.90;6.50;;;23.50;60.40;;;;;;217498;1295;22587;-65
2023/10/03 03:26:20;;;;;;;6.40;5.70;;;23.50;60.60;;;;;;217450;1298;22576;-65
2023/10/03 03:31:25;;;;;;;10.80;7.30;;;23.50;60.20;;;;;;217293;1297;22658;-64
2023/10/03 03:36:30;;;;;;;8.30;6.40;;;23.50;60.30;;;;;;217556;1298;22638;-65
2023/10/03 03:41:34;;;;;;;5.80;5.20;;;23.50;60.30;;;;;;217525;1295;22602;-65
2023/10/03 03:46:41;;;;;;;7.70;7.00;;;23.50;60.30;;;;;;217311;1294;22559;-63
2023/10/03 03:51:44;;;;;;;8.00;5.90;;;23.50;60.70;;;;;;217351;1298;22560;-64
2023/10/03 03:56:48;;;;;;;8.10;5.80;;;23.50;60.20;;;;;;217423;1298;22563;-65
2023/10/03 04:01:52;;;;;;;7.40;6.00;;;23.50;60.30;;;;;;217547;1294;22672;-65
2023/10/03 04:06:55;;;;;;;9.80;6.70;;;23.50;60.30;;;;;;217293;1295;22632;-64
2023/10/03 04:11:58;;;;;;;8.00;5.90;;;23.50;60.10;;;;;;217455;1298;22545;-64
2023/10/03 04:17:00;;;;;;;6.90;6.00;;;23.40;60.20;;;;;;217057;1292;24321;-63
2023/10/03 04:22:03;;;;;;;8.60;6.10;;;23.40;60.20;;;;;;217268;1298;22713;-64
2023/10/03 04:27:07;;;;;;;8.60;6.20;;;23.50;60.20;;;;;;217357;1297;23033;-64
2023/10/03 04:32:10;;;;;;;6.30;4.80;;;23.40;60.20;;;;;;217326;1294;22585;-64
2023/10/03 04:37:13;;;;;;;8.90;6.00;;;23.40;60.20;;;;;;217255;1298;22819;-65
2023/10/03 04:42:16;;;;;;;9.60;6.20;;;23.40;60.20;;;;;;217211;1295;22558;-64
2023/10/03 04:47:22;;;;;;;6.90;5.70;;;23.40;60.10;;;;;;217280;1291;25347;-65
2023/10/03 04:52:24;;;;;;;7.80;5.70;;;23.30;60.40;;;;;;217232;1296;22582;-65
2023/10/03 04:57:27;;;;;;;7.40;5.70;;;23.30;60.10;;;;;;217442;1298;22806;-64
2023/10/03 05:02:30;;;;;;;7.90;5.40;;;23.30;60.50;;;;;;217211;1298;22692;-65
2023/10/03 05:07:34;;;;;;;5.50;4.90;;;23.30;60.10;;;;;;217522;1294;22563;-64
2023/10/03 05:12:38;;;;;;;6.60;5.80;;;23.30;60.40;;;;;;217365;1294;22566;-63
2023/10/03 05:17:44;;;;;;;9.50;6.50;;;23.30;60.00;;;;;;217344;1294;22680;-66
2023/10/03 05:22:47;;;;;;;8.90;6.20;;;23.30;59.70;;;;;;217409;1298;22571;-64
2023/10/03 05:27:51;;;;;;;8.90;6.30;;;23.30;60.00;;;;;;217528;1298;24258;-64
2023/10/03 05:32:54;;;;;;;7.00;5.20;;;23.30;60.00;;;;;;217530;1285;22571;-64
2023/10/03 05:37:57;;;;;;;7.50;5.70;;;23.30;59.60;;;;;;217294;1296;22661;-64
2023/10/03 05:43:01;;;;;;;7.10;5.50;;;23.30;60.00;;;;;;217307;1276;22653;-66
2023/10/03 05:48:04;;;;;;;10.10;6.80;;;23.20;60.00;;;;;;217153;1298;25493;-65
2023/10/03 05:53:09;;;;;;;;;;;23.30;60.00;;;;;;216189;1297;22640;-64
2023/10/03 05:58:12;;;;;;;6.40;5.40;;;23.30;60.10;;;;;;216164;1297;22934;-64
2023/10/03 06:03:15;;;;;;;3.00;2.80;;;23.30;60.00;;;;;;215931;1305;22605;-64
2023/10/03 06:08:19;;;;;;;7.60;5.50;;;23.30;60.00;;;;;;215856;1290;24360;-63
2023/10/03 06:13:21;;;;;;;6.20;5.10;;;23.30;60.00;;;;;;215739;1294;23934;-65
2023/10/03 06:18:27;;;;;;;6.00;4.80;;;23.30;59.80;;;;;;217093;1298;22634;-65
2023/10/03 06:23:30;;;;;;;5.30;4.40;;;23.30;59.90;;;;;;217485;1294;22589;-65
2023/10/03 06:28:33;;;;;;;4.80;4.40;;;23.30;59.80;;;;;;217126;1297;22555;-64
2023/10/03 06:33:37;;;;;;;7.20;5.30;;;23.40;59.70;;;;;;217164;1298;23712;-64
2023/10/03 06:38:41;;;;;;;6.90;5.50;;;23.40;59.70;;;;;;217335;1278;22582;-68
2023/10/03 06:43:44;;;;;;;5.80;4.70;;;23.30;60.00;;;;;;217325;1294;22795;-63
2023/10/03 06:48:47;;;;;;;5.50;4.30;;;23.30;60.10;;;;;;217044;1294;22578;-64
2023/10/03 06:53:52;;;;;;;5.80;4.90;;;23.30;60.10;;;;;;217532;1295;22698;-64
2023/10/03 06:58:55;;;;;;;5.70;5.00;;;23.30;60.10;;;;;;217243;1296;25748;-64
2023/10/03 07:03:59;;;;;;;5.40;4.90;;;23.30;60.00;;;;;;217170;1283;22686;-64
2023/10/03 07:09:10;;;;;;;5.50;4.70;;;23.30;60.00;;;;;;217612;1283;23312;-65
2023/10/03 07:14:14;;;;;;;5.60;5.00;;;23.30;60.00;;;;;;217217;1297;22551;-63
2023/10/03 07:19:20;;;;;;;5.70;5.20;;;23.30;60.30;;;;;;217087;1298;22571;-65
2023/10/03 07:24:26;;;;;;;5.20;4.70;;;23.30;60.00;;;;;;217584;1298;22581;-65
2023/10/03 07:29:29;;;;;;;7.30;5.60;;;23.30;60.40;;;;;;216958;1297;22746;-63
2023/10/03 07:34:33;;;;;;;6.50;5.30;;;23.40;60.10;;;;;;217329;1298;22749;-63
2023/10/03 07:39:38;;;;;;;6.30;4.90;;;23.40;60.10;;;;;;217247;1298;24285;-63
2023/10/03 07:44:40;;;;;;;5.60;5.00;;;23.50;59.80;;;;;;217303;1297;22587;-64
2023/10/03 07:49:43;;;;;;;6.00;4.80;;;23.70;59.50;;;;;;217466;1291;22608;-63
2023/10/03 07:54:54;;;;;;;6.10;5.30;;;23.90;59.00;;;;;;217247;1297;24261;-64
2023/10/03 07:59:58;;;;;;;5.80;4.70;;;23.90;58.80;;;;;;217320;1295;24206;-64
2023/10/03 08:05:01;;;;;;;5.20;4.70;;;23.90;58.80;;;;;;217332;1293;22553;-65
2023/10/03 08:10:06;;;;;;;5.00;4.60;;;24.00;58.80;;;;;;217330;1297;22575;-63
2023/10/03 08:15:17;;;;;;;4.40;4.00;;;24.00;58.70;;;;;;217584;1298;25459;-64
2023/10/03 08:20:21;;;;;;;5.20;4.60;;;24.10;58.60;;;;;;217403;1298;24351;-64
2023/10/03 08:25:25;;;;;;;6.10;4.90;;;24.10;58.60;;;;;;217598;1294;22654;-64
2023/10/03 08:30:28;;;;;;;4.90;4.40;;;24.10;58.50;;;;;;217367;1298;24266;-63
2023/10/03 08:35:35;;;;;;;6.00;4.60;;;24.10;58.50;;;;;;217627;1298;22593;-64
2023/10/03 08:40:40;;;;;;;6.00;5.00;;;24.20;58.40;;;;;;217458;1295;22614;-64
2023/10/03 08:45:52;;;;;;;6.50;4.30;;;24.30;58.40;;;;;;217504;1298;24234;-64
2023/10/03 08:50:58;;;;;;;6.50;5.50;;;24.30;58.30;;;;;;217313;1294;24263;-64
2023/10/03 08:56:06;;;;;;;5.20;4.50;;;24.30;58.30;;;;;;217473;1298;22674;-64
2023/10/03 09:01:17;;;;;;;5.90;4.40;;;24.30;58.00;;;;;;217567;1294;25461;-64
2023/10/03 09:06:20;;;;;;;6.10;4.50;;;24.40;58.60;;;;;;217343;1298;23460;-63
2023/10/03 09:11:28;;;;;;;5.60;4.40;;;24.40;58.50;;;;;;217233;1294;22555;-63
2023/10/03 09:16:40;;;;;;;6.60;4.90;;;24.50;58.80;;;;;;217467;1294;22615;-64
2023/10/03 09:21:45;;;;;;;4.90;4.40;;;24.50;58.30;;;;;;217273;1298;22634;-63
2023/10/03 09:27:07;;;;;;;4.60;4.20;;;24.60;58.60;;;;;;217419;1298;22568;-65
2023/10/03 09:32:13;;;;;;;5.70;4.00;;;24.60;58.30;;;;;;217440;1295;22609;-62
2023/10/03 09:37:17;;;;;;;5.00;4.50;;;24.70;58.10;;;;;;217220;1297;22564;-63
2023/10/03 09:42:23;;;;;;;5.50;4.70;;;24.70;58.10;;;;;;217517;1288;22575;-65
2023/10/03 09:47:30;;;;;;;5.60;4.90;;;24.70;58.00;;;;;;217480;1297;24271;-63
2023/10/03 09:52:37;;;;;;;5.10;4.40;;;24.80;57.90;;;;;;217508;1294;24218;-65
2023/10/03 09:57:40;;;;;;;4.80;4.30;;;24.90;57.90;;;;;;217563;1294;22555;-66
2023/10/03 10:02:47;;;;;;;4.70;4.30;;;24.90;58.20;;;;;;217385;1294;22573;-64
2023/10/03 10:08:06;;;;;;;9.40;5.80;;;25.00;58.10;;;;;;217331;1298;24234;-68
2023/10/03 10:13:20;;;;;;;5.30;4.50;;;25.00;57.70;;;;;;217376;1298;22608;-63
2023/10/03 10:18:45;;;;;;;5.10;4.50;;;25.00;58.10;;;;;;217439;1298;22565;-63
2023/10/03 10:24:20;;;;;;;4.70;4.30;;;25.10;58.10;;;;;;217535;1292;24247;-64
2023/10/03 10:29:24;;;;;;;4.40;4.00;;;25.10;57.60;;;;;;217601;1298;22675;-64
2023/10/03 10:34:27;;;;;;;4.80;4.30;;;25.20;57.80;;;;;;217476;1294;23899;-64
2023/10/03 10:40:17;;;;;;;5.00;4.50;;;25.20;57.50;;;;;;217548;1298;25555;-63
2023/10/03 10:45:21;;;;;;;4.30;3.90;;;25.30;57.50;;;;;;217406;1298;22584;-64
2023/10/03 10:50:27;;;;;;;4.60;4.10;;;25.30;57.50;;;;;;217378;1294;24282;-64
2023/10/03 10:55:33;;;;;;;4.10;3.70;;;25.30;57.30;;;;;;217545;1298;23929;-65
2023/10/03 11:00:36;;;;;;;5.80;4.80;;;25.30;57.40;;;;;;217535;1292;22776;-64
2023/10/03 11:05:47;;;;;;;4.70;4.00;;;25.40;57.50;;;;;;217670;1298;24311;-64
2023/10/03 11:10:55;;;;;;;4.20;3.80;;;25.40;57.30;;;;;;217400;1298;22588;-64
2023/10/03 11:15:57;;;;;;;5.00;4.20;;;25.50;57.60;;;;;;217399;1291;22934;-64
2023/10/03 11:21:03;;;;;;;4.50;4.00;;;25.50;57.20;;;;;;217402;1297;25418;-63
2023/10/03 11:26:06;;;;;;;5.70;5.10;;;25.50;57.20;;;;;;217390;1298;25618;-59
2023/10/03 11:31:09;;;;;;;4.10;3.70;;;25.50;57.20;;;;;;217354;1298;24247;-60
2023/10/03 11:36:14;;;;;;;4.90;4.30;;;25.50;57.20;;;;;;217182;1298;25333;-58
2023/10/03 11:41:33;;;;;;;4.20;3.50;;;25.60;57.20;;;;;;217596;1298;22582;-60
2023/10/03 11:46:37;;;;;;;4.30;3.90;;;25.70;57.10;;;;;;217300;1298;22558;-59
2023/10/03 11:51:43;;;;;;;4.60;4.20;;;25.70;57.50;;;;;;217316;1298;23046;-60
2023/10/03 11:56:48;;;;;;;5.70;4.40;;;25.70;57.00;;;;;;217416;1298;24460;-59
2023/10/03 12:01:56;;;;;;;4.70;4.20;;;25.70;57.00;;;;;;217588;1291;22555;-62
2023/10/03 12:06:59;;;;;;;4.30;3.90;;;25.80;57.40;;;;;;217573;1291;22571;-60
2023/10/03 12:12:02;;;;;;;4.30;3.90;;;25.70;57.00;;;;;;217465;1298;25332;-60
2023/10/03 12:17:05;;;;;;;3.90;3.50;;;25.80;57.10;;;;;;217216;1292;25500;-57
2023/10/03 12:22:10;;;;;;;4.40;4.00;;;25.80;57.00;;;;;;217643;1298;22553;-60
2023/10/03 12:27:15;;;;;;;4.50;4.10;;;25.90;57.00;;;;;;217393;1297;22775;-59
2023/10/03 12:32:18;;;;;;;3.90;3.50;;;25.80;57.00;;;;;;217429;1298;24253;-61
2023/10/03 12:37:20;;;;;;;5.50;4.60;;;25.90;57.00;;;;;;217264;1294;24359;-59
2023/10/03 12:42:23;;;;;;;4.80;4.20;;;25.90;57.00;;;;;;217024;1294;22761;-60
2023/10/03 12:47:30;;;;;;;5.40;4.90;;;26.00;57.00;;;;;;217106;1299;22578;-60
2023/10/03 12:52:33;;;;;;;4.40;4.00;;;26.00;56.90;;;;;;217211;1300;22550;-59
2023/10/03 12:57:36;;;;;;;4.20;3.80;;;26.00;56.90;;;;;;217072;1300;22555;-61
2023/10/03 13:02:44;;;;;;;6.30;4.00;;;25.90;57.10;;;;;;217278;1300;22592;-62
2023/10/03 13:07:48;;;;;;;4.20;3.80;;;25.80;57.40;;;;;;217198;1292;24416;-59
2023/10/03 13:12:54;;;;;;;8.80;4.30;;;25.80;57.60;;;;;;217102;1298;22565;-59
2023/10/03 13:17:57;;;;;;;4.80;4.30;;;25.70;57.70;;;;;;217221;1298;25329;-60
2023/10/03 13:23:00;;;;;;;4.20;3.80;;;25.60;58.10;;;;;;217577;1298;22558;-59
2023/10/03 13:28:07;;;;;;;6.40;4.20;;;25.70;58.30;;;;;;217378;1295;22569;-61
2023/10/03 13:33:12;;;;;;;7.00;2.90;;;25.60;58.50;;;;;;217391;1297;22579;-59
2023/10/03 13:38:17;;;;;;;5.80;4.30;;;25.70;58.10;;;;;;217669;1297;22616;-60
2023/10/03 13:43:21;;;;;;;6.70;4.60;;;25.60;58.20;;;;;;217130;1298;22575;-59
2023/10/03 13:48:23;;;;;;;4.30;3.80;;;25.60;58.30;;;;;;217396;1298;22649;-61
2023/10/03 13:53:26;;;;;;;4.40;3.90;;;25.70;58.30;;;;;;217450;1298;22782;-59
2023/10/03 13:58:29;;;;;;;5.00;3.70;;;25.70;58.30;;;;;;217507;1298;22563;-59
2023/10/03 14:03:37;;;;;;;4.30;3.80;;;25.70;58.20;;;;;;217429;1292;23116;-62
2023/10/03 14:08:40;;;;;;;5.90;4.50;;;25.70;58.20;;;;;;217497;1298;22555;-60
2023/10/03 14:13:43;;;;;;;4.60;4.10;;;25.70;57.90;;;;;;217386;1293;22602;-61
2023/10/03 14:18:46;;;;;;;5.20;3.80;;;25.70;58.40;;;;;;217469;1292;22553;-59
2023/10/03 14:23:53;;;;;;;4.50;3.80;;;25.70;58.30;;;;;;217290;1298;22562;-61
2023/10/03 14:28:56;;;;;;;5.40;3.70;;;25.70;58.40;;;;;;217563;1292;22582;-60
2023/10/03 14:33:58;;;;;;;6.90;3.90;;;25.70;58.30;;;;;;217297;1298;22595;-59
2023/10/03 14:39:01;;;;;;;4.30;3.80;;;25.70;58.20;;;;;;217292;1298;22568;-60
2023/10/03 14:44:05;;;;;;;7.70;3.50;;;25.60;58.30;;;;;;217655;1298;26585;-60
2023/10/03 14:49:08;;;;;;;5.60;4.50;;;25.70;58.30;;;;;;217492;1298;23947;-61
2023/10/03 14:54:11;;;;;;;4.80;3.90;;;25.70;58.40;;;;;;217253;1291;22549;-61
2023/10/03 14:59:15;;;;;;;4.50;3.40;;;25.70;58.30;;;;;;217265;1298;22565;-59
2023/10/03 15:04:17;;;;;;;4.30;3.80;;;25.60;58.30;;;;;;217368;1298;25268;-65
2023/10/03 15:09:21;;;;;;;4.30;4.00;;;25.60;58.50;;;;;;217307;1298;242691;-67
2023/10/03 15:14:27;;;;;;;7.20;4.30;;;25.60;58.50;;;;;;217545;1298;24253;-65
2023/10/03 15:19:33;;;;;;;3.80;3.50;;;25.60;58.50;;;;;;217177;1299;22607;-67
2023/10/03 15:24:38;;;;;;;6.40;3.60;;;25.60;58.80;;;;;;217350;1291;22569;-66
2023/10/03 15:29:41;;;;;;;3.90;3.60;;;25.50;58.40;;;;;;217455;1282;25885;-66
2023/10/03 15:34:46;;;;;;;4.20;4.00;;;25.50;58.50;;;;;;217283;1298;25520;-65
2023/10/03 15:39:51;;;;;;;4.90;3.90;;;25.40;58.60;;;;;;217386;1298;22675;-66
2023/10/03 15:44:59;;;;;;;6.50;4.40;;;25.40;58.70;;;;;;217346;1298;25437;-66
2023/10/03 15:50:10;;;;;;;4.80;3.90;;;25.40;58.80;;;;;;217491;1298;22554;-65
2023/10/03 15:55:16;;;;;;;4.10;3.70;;;25.40;58.90;;;;;;217325;1298;22726;-65
2023/10/03 16:00:19;;;;;;;4.70;4.20;;;25.30;58.80;;;;;;217382;1298;25473;-65
2023/10/03 16:05:24;;;;;;;6.10;4.40;;;25.30;58.80;;;;;;217558;1298;22567;-66
2023/10/03 16:10:34;;;;;;;4.80;4.00;;;25.30;59.00;;;;;;217342;1298;22608;-67
2023/10/03 16:15:39;;;;;;;4.10;3.50;;;25.30;58.90;;;;;;217364;1298;22896;-61
2023/10/03 16:20:42;;;;;;;4.90;4.40;;;25.30;59.00;;;;;;217332;1295;22583;-61
2023/10/03 16:25:46;;;;;;;7.40;4.60;;;25.30;59.30;;;;;;217504;1294;22548;-61
2023/10/03 16:30:49;;;;;;;8.40;4.50;;;25.20;58.90;;;;;;217283;1298;22565;-61
2023/10/03 16:35:53;;;;;;;6.10;4.50;;;25.30;59.00;;;;;;217121;1298;24235;-60
2023/10/03 16:40:56;;;;;;;4.80;4.10;;;25.30;59.00;;;;;;217186;1298;24337;-62
2023/10/03 16:46:03;;;;;;;4.40;3.70;;;25.20;59.00;;;;;;217466;1297;22575;-59
2023/10/03 16:51:07;;;;;;;5.00;4.20;;;25.20;59.30;;;;;;217027;1295;22560;-61
2023/10/03 16:56:11;;;;;;;5.80;4.70;;;25.20;58.90;;;;;;217471;1292;25486;-63
2023/10/03 17:01:16;;;;;;;5.10;4.60;;;25.20;58.90;;;;;;217596;1297;22550;-60
2023/10/03 17:06:21;;;;;;;5.00;4.20;;;25.20;58.90;;;;;;217484;1298;24244;-61
2023/10/03 17:11:26;;;;;;;4.00;3.60;;;25.20;59.00;;;;;;217466;1298;25343;-61
2023/10/03 17:16:31;;;;;;;6.30;3.90;;;25.10;59.20;;;;;;217203;1298;22668;-59
2023/10/03 17:21:36;;;;;;;4.80;4.10;;;25.10;59.10;;;;;;217361;1298;22586;-62
2023/10/03 17:26:40;;;;;;;5.10;4.40;;;25.10;59.10;;;;;;217356;1295;24287;-66
2023/10/03 17:31:46;;;;;;;5.50;4.40;;;25.10;59.20;;;;;;217354;1297;22674;-66
2023/10/03 17:36:51;;;;;;;5.30;4.60;;;25.10;59.60;;;;;;217343;1294;25383;-66
2023/10/03 17:41:55;;;;;;;6.90;4.80;;;25.10;59.40;;;;;;217186;1298;23152;-65
2023/10/03 17:47:00;;;;;;;4.60;4.10;;;25.10;59.40;;;;;;217456;1292;22674;-66
2023/10/03 17:52:08;;;;;;;5.60;4.70;;;25.10;59.50;;;;;;217276;1295;22572;-66
2023/10/03 17:57:14;;;;;;;6.60;4.50;;;25.10;59.40;;;;;;217488;1295;25297;-66
2023/10/03 18:02:20;;;;;;;5.10;4.10;;;25.00;59.50;;;;;;217710;1295;22555;-64
2023/10/03 18:07:27;;;;;;;6.20;4.30;;;25.10;59.70;;;;;;217218;1298;22571;-66
2023/10/03 18:12:31;;;;;;;5.30;4.20;;;25.00;59.70;;;;;;217374;1298;22563;-65
2023/10/03 18:17:38;;;;;;;4.40;4.00;;;25.00;59.70;;;;;;217407;1298;23756;-64
2023/10/03 18:22:44;;;;;;;5.50;4.90;;;25.00;59.40;;;;;;217622;1298;24588;-67
2023/10/03 18:27:49;;;;;;;4.90;4.50;;;24.90;59.40;;;;;;217630;1294;22555;-65
2023/10/03 18:32:55;;;;;;;4.70;4.20;;;24.90;59.40;;;;;;217456;1288;24549;-65
2023/10/03 18:37:59;;;;;;;6.10;4.50;;;25.00;59.50;;;;;;217405;1292;22585;-65
2023/10/03 18:43:06;;;;;;;5.00;4.50;;;25.00;59.80;;;;;;217366;1298;22930;-65
2023/10/03 18:48:12;;;;;;;6.70;4.90;;;24.90;59.60;;;;;;217379;1296;22563;-67
2023/10/03 18:53:17;;;;;;;4.50;4.10;;;24.90;59.80;;;;;;217053;1300;22813;-67
2023/10/03 18:58:25;;;;;;;4.70;4.30;;;24.90;59.60;;;;;;217016;1300;23951;-64
2023/10/03 19:03:31;;;;;;;5.10;4.60;;;24.90;59.60;;;;;;217073;1300;25394;-66
2023/10/03 19:08:37;;;;;;;5.90;4.50;;;24.90;59.60;;;;;;217201;1300;22556;-66
2023/10/03 19:13:44;;;;;;;4.70;4.20;;;24.90;59.60;;;;;;217019;1295;22560;-64
2023/10/03 19:18:49;;;;;;;4.50;4.10;;;24.90;60.00;;;;;;217042;1296;23921;-66
2023/10/03 19:23:56;;;;;;;5.10;4.60;;;24.90;59.70;;;;;;217302;1298;25552;-65
2023/10/03 19:29:04;;;;;;;5.00;4.30;;;24.90;59.70;;;;;;217524;1285;22929;-65
2023/10/03 19:34:12;;;;;;;6.40;4.40;;;24.90;59.80;;;;;;217636;1291;24464;-65
2023/10/03 19:39:19;;;;;;;6.10;5.20;;;24.90;59.80;;;;;;217445;1298;22668;-66
2023/10/03 19:44:27;;;;;;;6.20;4.80;;;24.90;59.90;;;;;;217314;1297;25595;-61
2023/10/03 19:49:39;;;;;;;10.50;5.60;;;24.90;60.00;;;;;;217165;1291;22560;-60
2023/10/03 19:54:43;;;;;;;6.00;5.00;;;24.80;60.20;;;;;;217031;1294;24324;-60
2023/10/03 19:59:50;;;;;;;5.30;4.80;;;24.80;60.40;;;;;;217355;1298;25373;-61
2023/10/03 20:04:57;;;;;;;6.80;4.30;;;24.80;60.40;;;;;;217325;1292;24275;-60
2023/10/03 20:10:01;;;;;;;6.40;5.00;;;24.80;60.30;;;;;;217399;1298;22597;-61
2023/10/03 20:15:12;;;;;;;6.10;4.60;;;24.80;60.20;;;;;;217376;1298;22539;-60
2023/10/03 20:20:22;;;;;;;6.40;4.90;;;24.80;60.20;;;;;;217330;1282;22552;-60
2023/10/03 20:25:30;;;;;;;4.90;4.40;;;24.80;59.90;;;;;;217453;1294;24263;-60
2023/10/03 20:30:36;;;;;;;6.40;4.80;;;24.80;60.10;;;;;;217609;1298;24260;-62
2023/10/03 20:35:46;;;;;;;4.80;4.30;;;24.70;60.10;;;;;;217211;1288;22564;-59
2023/10/03 20:40:53;;;;;;;8.00;4.50;;;24.70;60.10;;;;;;217264;1292;24292;-59
2023/10/03 20:46:09;;;;;;;5.20;4.60;;;24.70;60.20;;;;;;217510;1298;24279;-60
2023/10/03 20:51:17;;;;;;;4.60;3.70;;;24.70;60.00;;;;;;217251;1291;24359;-60
2023/10/03 20:56:21;;;;;;;4.40;4.00;;;24.80;60.00;;;;;;217674;1295;23969;-60
2023/10/03 21:01:24;;;;;;;6.40;4.40;;;24.70;60.00;;;;;;217379;1298;22558;-60
2023/10/03 21:06:29;;;;;;;6.60;4.00;;;24.80;60.10;;;;;;217339;1298;22749;-59
2023/10/03 21:11:32;;;;;;;4.30;3.90;;;24.80;60.00;;;;;;217480;1296;22579;-65
2023/10/03 21:16:35;;;;;;;4.20;3.70;;;24.70;59.80;;;;;;217278;1298;22564;-61
2023/10/03 21:21:38;;;;;;;4.30;3.90;;;24.70;60.00;;;;;;217285;1298;27138;-59
2023/10/03 21:26:41;;;;;;;4.40;4.00;;;24.70;60.00;;;;;;217734;1296;23027;-59
2023/10/03 21:31:43;;;;;;;4.20;3.80;;;24.70;60.60;;;;;;217492;1298;24382;-61
2023/10/03 21:36:47;;;;;;;5.90;3.70;;;24.70;60.00;;;;;;217374;1295;22868;-61
2023/10/03 21:41:51;;;;;;;5.00;3.80;;;24.70;60.10;;;;;;217671;1298;22618;-60
2023/10/03 21:46:54;;;;;;;3.70;3.40;;;24.70;60.30;;;;;;217245;1298;22516;-60
2023/10/03 21:51:57;;;;;;;4.70;4.10;;;24.70;60.10;;;;;;217746;1298;22566;-60
2023/10/03 21:57:00;;;;;;;6.50;4.80;;;24.70;60.20;;;;;;217380;1294;22582;-59
2023/10/03 22:02:05;;;;;;;4.10;3.70;;;24.70;59.90;;;;;;217370;1294;24247;-60
2023/10/03 22:07:10;;;;;;;3.90;3.50;;;24.70;59.90;;;;;;217129;1298;24280;-60
2023/10/03 22:12:13;;;;;;;4.30;3.70;;;24.70;59.90;;;;;;217637;1291;25303;-61
2023/10/03 22:17:16;;;;;;;5.10;3.80;;;24.70;60.10;;;;;;217451;1298;22836;-61
2023/10/03 22:22:19;;;;;;;7.40;5.10;;;24.70;59.90;;;;;;217385;1292;22567;-61
2023/10/03 22:27:22;;;;;;;4.20;3.80;;;24.70;60.00;;;;;;217267;1298;23936;-63
2023/10/03 22:32:25;;;;;;;4.40;3.90;;;24.60;60.10;;;;;;217419;1294;24235;-60
2023/10/03 22:37:28;;;;;;;5.70;4.30;;;24.60;60.20;;;;;;217561;1298;23154;-61
2023/10/03 22:42:31;;;;;;;4.90;3.20;;;24.60;60.20;;;;;;217350;1288;24266;-61
2023/10/03 22:47:34;;;;;;;4.30;3.90;;;24.50;60.30;;;;;;217227;1298;22567;-60
2023/10/03 22:52:36;;;;;;;3.50;3.20;;;24.50;60.30;;;;;;217337;1298;22556;-61
2023/10/03 22:57:39;;;;;;;3.80;3.30;;;24.40;60.30;;;;;;217306;1297;23968;-60
2023/10/03 23:02:42;;;;;;;5.90;4.00;;;24.40;60.50;;;;;;217446;1298;22590;-62
2023/10/03 23:07:46;;;;;;;5.10;3.60;;;24.50;60.30;;;;;;217595;1297;22593;-61
2023/10/03 23:12:49;;;;;;;3.90;3.10;;;24.50;60.20;;;;;;217247;1298;27729;-59
2023/10/03 23:17:52;;;;;;;4.30;3.50;;;24.50;60.20;;;;;;217639;1298;22555;-67
2023/10/03 23:22:55;;;;;;;3.70;3.20;;;24.40;60.60;;;;;;217693;1295;22562;-65
2023/10/03 23:27:58;;;;;;;3.10;2.80;;;24.40;60.30;;;;;;217347;1291;22660;-66
2023/10/03 23:33:01;;;;;;;3.90;3.40;;;24.50;60.10;;;;;;217355;1295;22553;-64
2023/10/03 23:38:04;;;;;;;4.50;3.60;;;24.40;60.20;;;;;;217599;1298;22579;-65
2023/10/03 23:43:07;;;;;;;2.60;2.40;;;24.40;60.20;;;;;;217397;1298;22553;-65
2023/10/03 23:48:12;;;;;;;2.90;2.60;;;24.40;60.30;;;;;;217528;1294;22569;-67
2023/10/03 23:53:17;;;;;;;5.90;3.20;;;24.50;60.10;;;;;;217284;1298;22565;-65
2023/10/03 23:58:21;;;;;;;4.00;3.40;;;24.40;60.00;;;;;;217537;1298;22566;-66
